createdAt,value
2022-09-07T00:00:11.599Z,1.70
2022-09-07T00:02:39.184Z,1.77
2022-09-07T00:05:07.620Z,1.85
2022-09-07T00:07:35.233Z,1.90
2022-09-07T00:10:04.127Z,1.92
2022-09-07T00:12:31.527Z,1.98
2022-09-07T00:14:58.911Z,2.13
2022-09-07T00:17:26.331Z,1.80
2022-09-07T00:19:55.286Z,2.10
2022-09-07T00:22:22.713Z,1.95
2022-09-07T00:24:50.108Z,2.08
2022-09-07T00:27:18.966Z,2.65
2022-09-07T00:29:46.581Z,2.50
2022-09-07T00:32:14.184Z,2.72
2022-09-07T00:34:41.626Z,2.80
2022-09-07T00:37:09.181Z,2.50
2022-09-07T00:39:37.373Z,2.50
2022-09-07T00:42:04.950Z,2.28
2022-09-07T00:45:07.088Z,2.30
2022-09-07T00:47:40.301Z,2.10
2022-09-07T00:50:13.517Z,2.20
2022-09-07T00:52:43.177Z,2.22
2022-09-07T00:55:15.781Z,1.98
2022-09-07T00:57:47.412Z,2.33
2022-09-07T01:00:16.493Z,2.40
2022-09-07T01:02:44.550Z,3.08
2022-09-07T01:05:22.574Z,2.90
2022-09-07T01:07:50.395Z,2.97
2022-09-07T01:10:18.500Z,3.38
2022-09-07T01:12:45.887Z,3.33
2022-09-07T01:15:13.360Z,3.80
2022-09-07T01:18:08.446Z,3.53
2022-09-07T01:20:52.410Z,3.42
2022-09-07T01:23:55.466Z,3.20
2022-09-07T01:26:53.998Z,4.03
2022-09-07T01:29:29.634Z,3.58
2022-09-07T01:32:06.057Z,3.30
2022-09-07T01:34:33.496Z,2.90
2022-09-07T01:37:08.176Z,2.70
2022-09-07T01:39:44.951Z,2.90
2022-09-07T01:42:15.836Z,2.97
2022-09-07T01:44:48.806Z,2.90
2022-09-07T01:47:19.745Z,3.22
2022-09-07T01:49:51.990Z,3.15
2022-09-07T01:52:26.430Z,2.97
2022-09-07T01:55:00.261Z,3.10
2022-09-07T01:57:34.094Z,2.65
2022-09-07T02:00:08.618Z,2.85
2022-09-07T02:02:41.797Z,2.50
2022-09-07T02:05:14.194Z,2.22
2022-09-07T02:07:46.839Z,2.25
2022-09-07T02:10:18.289Z,2.20
2022-09-07T02:12:51.796Z,2.08
2022-09-07T02:15:25.063Z,2.10
2022-09-07T02:17:58.702Z,1.88
2022-09-07T02:20:31.259Z,2.00
2022-09-07T02:23:01.182Z,2.45
2022-09-07T02:25:32.965Z,2.42
2022-09-07T02:28:07.278Z,2.15
2022-09-07T02:33:03.644Z,1.85
2022-09-07T02:35:31.031Z,1.80
2022-09-07T02:38:01.340Z,1.90
2022-09-07T02:40:28.912Z,2.00
2022-09-07T02:42:58.686Z,1.75
2022-09-07T02:45:26.770Z,1.98
2022-09-07T02:48:10.482Z,1.75
2022-09-07T02:50:50.810Z,2.00
2022-09-07T02:53:35.048Z,1.80
2022-09-07T02:56:17.782Z,1.83
2022-09-07T02:58:50.360Z,2.30
2022-09-07T03:01:28.504Z,2.65
2022-09-07T03:04:07.565Z,3.28
2022-09-07T03:06:40.713Z,4.65
2022-09-07T03:09:13.504Z,5.88
2022-09-07T03:11:40.905Z,5.47
2022-09-07T03:14:13.494Z,4.72
2022-09-07T03:16:41.049Z,4.65
2022-09-07T03:19:09.890Z,5.22
2022-09-07T03:21:37.313Z,5.05
2022-09-07T03:24:05.334Z,5.72
2022-09-07T03:26:32.816Z,5.45
2022-09-07T03:29:00.863Z,5.40
2022-09-07T03:31:28.295Z,6.30
2022-09-07T03:33:55.797Z,6.32
2022-09-07T03:36:24.609Z,6.25
2022-09-07T03:38:52.022Z,6.20
2022-09-07T03:41:19.406Z,6.13
2022-09-07T03:43:46.798Z,5.53
2022-09-07T03:46:18.022Z,4.90
2022-09-07T03:48:46.362Z,3.75
2022-09-07T03:51:15.586Z,3.97
2022-09-07T03:53:46.963Z,4.00
2022-09-07T03:56:16.121Z,3.85
2022-09-07T03:58:43.542Z,3.92
2022-09-07T04:01:13.059Z,4.60
2022-09-07T04:03:40.718Z,5.90
2022-09-07T04:06:08.322Z,5.55
2022-09-07T04:08:37.662Z,5.65
2022-09-07T04:11:08.087Z,5.80
2022-09-07T04:13:37.127Z,5.32
2022-09-07T04:16:11.538Z,5.35
2022-09-07T04:18:39.004Z,5.00
2022-09-07T04:21:06.716Z,5.18
2022-09-07T04:23:34.446Z,4.88
2022-09-07T04:26:01.864Z,4.80
2022-09-07T04:28:30.625Z,5.13
2022-09-07T04:31:01.303Z,4.70
2022-09-07T04:33:28.838Z,4.93
2022-09-07T04:35:56.206Z,5.18
2022-09-07T04:38:23.605Z,4.85
2022-09-07T04:40:50.998Z,5.78
2022-09-07T04:43:18.375Z,6.43
2022-09-07T04:45:47.127Z,6.50
2022-09-07T04:48:14.558Z,5.00
2022-09-07T04:50:41.914Z,4.35
2022-09-07T04:53:09.531Z,4.30
2022-09-07T04:55:37.293Z,3.53
2022-09-07T04:58:04.768Z,3.45
2022-09-07T05:00:32.930Z,3.45
2022-09-07T05:03:01.643Z,3.15
2022-09-07T05:05:29.057Z,3.00
2022-09-07T05:07:56.470Z,3.45
2022-09-07T05:10:24.069Z,3.60
2022-09-07T05:12:52.328Z,4.95
2022-09-07T05:15:19.779Z,6.10
2022-09-07T05:17:47.205Z,6.25
2022-09-07T05:20:20.047Z,5.55
2022-09-07T05:22:47.751Z,5.25
2022-09-07T05:25:15.363Z,4.95
2022-09-07T05:27:42.749Z,3.67
2022-09-07T05:32:58.830Z,2.55
2022-09-07T05:35:27.534Z,2.17
2022-09-07T05:37:54.907Z,2.30
2022-09-07T05:40:22.595Z,2.42
2022-09-07T05:42:49.979Z,2.53
2022-09-07T05:45:17.913Z,2.53
2022-09-07T05:47:45.297Z,2.58
2022-09-07T05:50:12.672Z,2.60
2022-09-07T05:52:41.354Z,2.47
2022-09-07T05:55:28.770Z,2.60
2022-09-07T05:57:57.456Z,2.75
2022-09-07T06:00:24.867Z,2.42
2022-09-07T06:02:52.268Z,2.67
2022-09-07T06:05:19.680Z,2.55
2022-09-07T06:07:49.052Z,2.55
2022-09-07T06:13:04.469Z,2.20
2022-09-07T06:15:32.890Z,2.30
2022-09-07T06:18:00.395Z,2.38
2022-09-07T06:20:27.841Z,2.40
2022-09-07T06:22:56.629Z,3.00
2022-09-07T06:25:24.026Z,1.63
2022-09-07T06:27:52.053Z,1.88
2022-09-07T06:30:19.465Z,1.48
2022-09-07T06:32:46.890Z,1.45
2022-09-07T06:35:15.486Z,1.40
2022-09-07T06:37:43.754Z,1.73
2022-09-07T06:40:12.934Z,1.58
2022-09-07T06:42:40.608Z,1.67
2022-09-07T06:45:09.997Z,1.58
2022-09-07T06:47:37.566Z,1.40
2022-09-07T06:50:05.207Z,1.77
2022-09-07T06:55:21.279Z,2.55
2022-09-07T06:57:48.671Z,3.08
2022-09-07T07:00:16.705Z,3.03
2022-09-07T07:02:44.089Z,3.13
2022-09-07T07:05:11.520Z,3.35
2022-09-07T07:07:38.987Z,3.65
2022-09-07T07:10:07.127Z,2.80
2022-09-07T07:15:02.128Z,4.40
2022-09-07T07:17:29.541Z,4.68
2022-09-07T07:19:56.915Z,4.22
2022-09-07T07:22:45.603Z,2.45
2022-09-07T07:25:11.824Z,1.65
2022-09-07T07:27:40.550Z,1.67
2022-09-07T07:30:08.912Z,1.95
2022-09-07T07:32:38.363Z,2.25
2022-09-07T07:35:06.651Z,2.80
2022-09-07T07:37:34.330Z,2.63
2022-09-07T07:40:19.181Z,2.60
2022-09-07T07:42:50.339Z,2.90
2022-09-07T07:48:05.484Z,2.50
2022-09-07T07:50:33.269Z,3.05
2022-09-07T07:55:48.856Z,2.65
2022-09-07T07:58:17.879Z,2.92
2022-09-07T08:01:00.722Z,2.40
2022-09-07T08:03:28.664Z,2.40
2022-09-07T08:05:56.687Z,1.98
2022-09-07T08:08:28.173Z,2.00
2022-09-07T08:10:55.541Z,1.88
2022-09-07T08:13:24.313Z,1.33
2022-09-07T08:15:51.738Z,1.20
2022-09-07T08:18:19.126Z,1.20
2022-09-07T08:20:46.472Z,1.48
2022-09-07T08:23:15.234Z,1.33
2022-09-07T08:25:50.951Z,1.30
2022-09-07T08:28:18.343Z,1.98
2022-09-07T08:30:47.096Z,2.00
2022-09-07T08:33:14.925Z,1.95
2022-09-07T08:35:46.174Z,3.53
2022-09-07T08:38:14.605Z,3.70
2022-09-07T08:40:44.329Z,3.53
2022-09-07T08:43:24.182Z,3.45
2022-09-07T08:45:57.618Z,2.70
2022-09-07T08:48:32.995Z,1.83
2022-09-07T08:51:06.168Z,1.10
2022-09-07T08:53:36.900Z,1.02
2022-09-07T08:56:09.585Z,1.23
2022-09-07T08:58:49.240Z,1.48
2022-09-07T09:01:36.539Z,1.33
2022-09-07T09:04:22.210Z,1.27
2022-09-07T09:07:03.489Z,1.27
2022-09-07T09:09:45.436Z,1.45
2022-09-07T09:12:22.341Z,3.30
2022-09-07T09:15:05.753Z,4.10
2022-09-07T09:17:39.359Z,3.45
2022-09-07T09:20:19.693Z,4.68
2022-09-07T09:22:47.287Z,5.13
2022-09-07T09:25:20.183Z,4.72
2022-09-07T09:27:47.927Z,5.13
2022-09-07T09:30:21.997Z,7.05
2022-09-07T09:35:28.320Z,6.75
2022-09-07T09:37:57.534Z,8.15
2022-09-07T09:40:27.798Z,7.80
2022-09-07T09:43:03.607Z,8.77
2022-09-07T09:48:32.073Z,5.80
2022-09-07T09:53:56.417Z,4.03
2022-09-07T09:56:36.640Z,3.45
2022-09-07T10:05:31.260Z,2.70
2022-09-07T10:07:58.772Z,2.95
2022-09-07T10:10:27.932Z,3.47
2022-09-07T10:12:56.367Z,3.40
2022-09-07T10:15:32.833Z,3.35
2022-09-07T10:18:04.491Z,3.92
2022-09-07T10:20:35.968Z,3.55
2022-09-07T10:23:04.623Z,5.82
2022-09-07T10:25:36.340Z,3.90
2022-09-07T10:28:07.498Z,5.38
2022-09-07T10:30:46.834Z,5.90
2022-09-07T10:33:20.652Z,5.45
2022-09-07T10:36:00.615Z,3.65
2022-09-07T10:38:33.476Z,3.40
2022-09-07T10:41:05.757Z,4.03
2022-09-07T10:43:43.155Z,3.85
2022-09-07T10:49:24.343Z,5.38
2022-09-07T10:52:01.263Z,7.70
2022-09-07T10:54:39.252Z,8.93
2022-09-07T10:57:27.924Z,9.93
2022-09-07T11:00:09.673Z,8.65
2022-09-07T11:06:03.292Z,8.10
2022-09-07T11:14:26.401Z,7.00
2022-09-07T11:17:01.034Z,6.03
2022-09-07T11:19:36.142Z,3.90
2022-09-07T11:22:14.835Z,4.70
2022-09-07T11:25:29.149Z,5.60
2022-09-07T11:27:42.467Z,5.85
2022-09-07T11:30:19.592Z,5.35
2022-09-07T11:32:54.128Z,5.38
2022-09-07T11:35:32.148Z,4.72
2022-09-07T11:38:03.785Z,5.45
2022-09-07T11:40:36.810Z,6.03
2022-09-07T11:43:11.546Z,6.32
2022-09-07T11:45:44.250Z,6.30
2022-09-07T11:48:19.797Z,6.28
2022-09-07T11:50:51.569Z,6.82
2022-09-07T11:53:23.073Z,6.85
2022-09-07T11:55:57.121Z,7.13
2022-09-07T12:01:29.460Z,6.78
2022-09-07T12:04:26.134Z,6.97
2022-09-07T12:07:24.434Z,7.05
2022-09-07T12:10:13.618Z,7.07
2022-09-07T12:12:57.499Z,7.32
2022-09-07T12:15:37.293Z,7.53
2022-09-07T12:18:27.529Z,7.38
2022-09-07T12:20:54.987Z,5.05
2022-09-07T12:23:29.975Z,4.10
2022-09-07T12:26:39.517Z,3.75
2022-09-07T12:29:21.038Z,2.60
2022-09-07T12:31:59.813Z,2.72
2022-09-07T12:34:46.960Z,2.25
2022-09-07T12:37:37.628Z,2.55
2022-09-07T12:40:42.218Z,2.63
2022-09-07T12:43:46.537Z,2.55
2022-09-07T12:46:41.259Z,2.90
2022-09-07T12:49:20.563Z,2.75
2022-09-07T12:52:03.436Z,3.35
2022-09-07T12:54:42.221Z,6.10
2022-09-07T12:57:29.271Z,8.47
2022-09-07T13:00:06.704Z,9.40
2022-09-07T13:02:59.257Z,8.75
2022-09-07T13:05:44.020Z,9.13
2022-09-07T13:08:43.844Z,9.07
2022-09-07T13:11:26.382Z,7.95
2022-09-07T13:14:04.189Z,5.13
2022-09-07T13:19:56.579Z,3.65
2022-09-07T13:22:57.275Z,4.82
2022-09-07T13:25:46.307Z,6.05
2022-09-07T13:28:42.460Z,11.40
2022-09-07T13:31:34.248Z,10.38
2022-09-07T13:34:01.660Z,7.38
2022-09-07T13:36:41.360Z,7.70
2022-09-07T13:39:15.298Z,6.32
2022-09-07T13:41:48.323Z,3.42
2022-09-07T13:44:25.807Z,3.35
2022-09-07T13:47:03.514Z,3.78
2022-09-07T13:49:49.628Z,4.60
2022-09-07T13:52:24.427Z,3.35
2022-09-07T13:55:04.410Z,3.28
2022-09-07T13:57:40.083Z,3.17
2022-09-07T14:00:14.503Z,3.78
2022-09-07T14:02:42.504Z,3.53
2022-09-07T14:05:12.743Z,3.95
2022-09-07T14:07:46.241Z,2.97
2022-09-07T14:10:19.322Z,4.63
2022-09-07T14:12:49.891Z,8.05
2022-09-07T14:15:23.460Z,8.55
2022-09-07T14:18:02.697Z,8.25
2022-09-07T14:20:32.364Z,9.00
2022-09-07T14:23:00.353Z,9.40
2022-09-07T14:25:29.712Z,9.13
2022-09-07T14:27:58.644Z,9.30
2022-09-07T14:30:28.999Z,8.88
2022-09-07T14:32:58.715Z,10.45
2022-09-07T14:35:29.352Z,9.65
2022-09-07T14:38:04.157Z,9.45
2022-09-07T14:40:33.129Z,9.70
2022-09-07T14:43:00.508Z,8.82
2022-09-07T14:45:33.562Z,9.13
2022-09-07T14:48:01.432Z,8.87
2022-09-07T14:50:33.600Z,9.82
2022-09-07T14:56:01.845Z,11.30
2022-09-07T14:58:32.320Z,12.30
2022-09-07T15:04:00.557Z,12.63
2022-09-07T15:09:27.935Z,12.32
2022-09-07T15:12:12.332Z,11.27
2022-09-07T15:14:39.783Z,11.13
2022-09-07T15:19:55.015Z,6.40
2022-09-07T15:22:22.803Z,4.68
2022-09-07T15:24:50.766Z,4.93
2022-09-07T15:27:29.648Z,5.15
2022-09-07T15:29:57.210Z,4.78
2022-09-07T15:32:24.698Z,4.90
2022-09-07T15:34:52.075Z,5.10
2022-09-07T15:40:15.370Z,7.32
2022-09-07T15:43:00.387Z,8.25
2022-09-07T15:45:28.141Z,7.00
2022-09-07T15:47:56.329Z,6.50
2022-09-07T15:50:23.775Z,5.03
2022-09-07T15:52:51.193Z,5.03
2022-09-07T15:55:18.553Z,5.45
2022-09-07T15:57:51.253Z,4.25
2022-09-07T16:00:22.256Z,4.55
2022-09-07T16:03:06.451Z,4.93
2022-09-07T16:05:34.877Z,4.97
2022-09-07T16:10:54.296Z,5.80
2022-09-07T16:13:24.665Z,6.72
2022-09-07T16:15:52.234Z,7.35
2022-09-07T16:18:20.116Z,6.88
2022-09-07T16:20:52.472Z,7.60
2022-09-07T16:23:20.288Z,5.53
2022-09-07T16:25:58.066Z,5.50
2022-09-07T16:28:27.654Z,5.82
2022-09-07T16:30:56.310Z,6.38
2022-09-07T16:33:31.505Z,6.93
2022-09-07T16:36:07.127Z,7.45
2022-09-07T16:38:50.388Z,7.32
2022-09-07T16:41:20.490Z,8.05
2022-09-07T16:43:49.604Z,8.05
2022-09-07T16:46:18.783Z,7.18
2022-09-07T16:48:46.301Z,7.03
2022-09-07T16:51:15.436Z,6.53
2022-09-07T16:53:44.373Z,5.40
2022-09-07T16:56:13.681Z,5.18
2022-09-07T16:58:43.407Z,5.03
2022-09-07T17:01:14.993Z,5.00
2022-09-07T17:03:42.904Z,5.75
2022-09-07T17:06:12.283Z,5.65
2022-09-07T17:08:40.580Z,5.57
2022-09-07T17:11:10.127Z,5.80
2022-09-07T17:13:39.078Z,5.63
2022-09-07T17:16:08.058Z,6.45
2022-09-07T17:21:24.907Z,4.57
2022-09-07T17:23:56.165Z,4.82
2022-09-07T17:26:26.636Z,4.60
2022-09-07T17:29:00.357Z,4.00
2022-09-07T17:34:19.350Z,3.88
2022-09-07T17:36:46.688Z,4.15
2022-09-07T17:39:16.210Z,4.13
2022-09-07T17:41:44.540Z,3.90
2022-09-07T17:44:11.962Z,4.18
2022-09-07T17:46:39.650Z,4.03
2022-09-07T17:49:08.754Z,4.68
2022-09-07T17:51:37.565Z,4.45
2022-09-07T17:54:11.355Z,4.63
2022-09-07T17:56:40.238Z,3.97
2022-09-07T18:01:55.596Z,4.88
2022-09-07T18:04:23.625Z,5.43
2022-09-07T18:06:52.514Z,7.43
2022-09-07T18:09:20.226Z,8.65
2022-09-07T18:11:49.337Z,8.82
2022-09-07T18:14:17.435Z,9.02
2022-09-07T18:16:46.561Z,9.10
2022-09-07T18:19:14.915Z,8.90
2022-09-07T18:21:44.481Z,8.23
2022-09-07T18:24:17.457Z,7.32
2022-09-07T18:26:50.240Z,7.70
2022-09-07T18:29:28.826Z,6.40
2022-09-07T18:31:57.957Z,5.57
2022-09-07T18:34:25.690Z,5.63
2022-09-07T18:36:53.074Z,5.95
2022-09-07T18:39:21.729Z,5.13
2022-09-07T18:41:49.066Z,4.65
2022-09-07T18:47:03.772Z,4.10
2022-09-07T18:49:31.118Z,5.35
2022-09-07T18:54:47.110Z,4.38
2022-09-07T18:57:15.458Z,4.82
2022-09-07T18:59:42.932Z,6.05
2022-09-07T19:02:10.592Z,5.07
2022-09-07T19:07:29.609Z,3.65
2022-09-07T19:09:58.816Z,3.08
2022-09-07T19:12:26.415Z,3.08
2022-09-07T19:14:53.820Z,2.92
2022-09-07T19:17:21.171Z,3.00
2022-09-07T19:19:49.282Z,3.00
2022-09-07T19:22:16.623Z,2.78
2022-09-07T19:24:43.956Z,3.47
2022-09-07T19:27:12.613Z,2.85
2022-09-07T19:29:39.946Z,2.95
2022-09-07T19:32:08.013Z,3.00
2022-09-07T19:34:37.273Z,2.95
2022-09-07T19:37:06.211Z,2.67
2022-09-07T19:39:33.655Z,2.75
2022-09-07T19:42:01.387Z,2.13
2022-09-07T19:44:30.079Z,1.63
2022-09-07T19:46:57.496Z,2.30
2022-09-07T19:49:24.990Z,3.55
2022-09-07T19:51:52.354Z,4.00
2022-09-07T19:54:19.970Z,4.03
2022-09-07T19:56:47.337Z,3.45
2022-09-07T19:59:15.273Z,3.97
2022-09-07T20:01:46.333Z,4.03
2022-09-07T20:04:20.443Z,4.82
2022-09-07T20:06:49.909Z,5.28
2022-09-07T20:09:18.314Z,5.30
2022-09-07T20:11:46.901Z,5.53
2022-09-07T20:14:15.169Z,4.22
2022-09-07T20:16:43.978Z,2.47
2022-09-07T20:19:14.321Z,2.25
2022-09-07T20:21:42.004Z,2.10
2022-09-07T20:24:11.661Z,2.25
2022-09-07T20:26:39.039Z,2.53
2022-09-07T20:31:55.607Z,2.72
2022-09-07T20:34:22.974Z,2.42
2022-09-07T20:36:50.746Z,2.58
2022-09-07T20:39:18.164Z,2.55
2022-09-07T20:41:45.815Z,2.75
2022-09-07T20:44:13.335Z,2.78
2022-09-07T20:46:40.805Z,2.45
2022-09-07T20:49:09.626Z,2.40
2022-09-07T20:51:37.087Z,2.60
2022-09-07T20:54:04.745Z,2.70
2022-09-07T20:56:32.178Z,2.20
2022-09-07T20:59:02.000Z,2.45
2022-09-07T21:01:30.561Z,2.85
2022-09-07T21:04:00.426Z,2.55
2022-09-07T21:06:30.065Z,3.03
2022-09-07T21:08:57.891Z,2.80
2022-09-07T21:11:28.619Z,3.42
2022-09-07T21:13:57.044Z,4.18
2022-09-07T21:16:24.447Z,5.22
2022-09-07T21:18:54.374Z,6.78
2022-09-07T21:21:22.927Z,7.57
2022-09-07T21:23:56.630Z,8.35
2022-09-07T21:26:24.974Z,8.00
2022-09-07T21:28:56.913Z,7.80
2022-09-07T21:31:24.413Z,8.10
2022-09-07T21:33:55.331Z,7.38
2022-09-07T21:36:23.102Z,6.82
2022-09-07T21:38:52.323Z,7.10
2022-09-07T21:41:22.205Z,7.22
2022-09-07T21:43:49.670Z,6.75
2022-09-07T21:46:18.828Z,5.90
2022-09-07T21:48:47.309Z,4.78
2022-09-07T21:51:15.120Z,3.90
2022-09-07T21:53:42.586Z,3.00
2022-09-07T21:56:13.175Z,2.72
2022-09-07T21:58:41.108Z,2.50
2022-09-07T22:01:14.331Z,2.22
2022-09-07T22:03:41.865Z,2.43
2022-09-07T22:06:09.801Z,2.38
2022-09-07T22:08:39.266Z,3.03
2022-09-07T22:11:08.387Z,2.95
2022-09-07T22:13:37.818Z,3.53
2022-09-07T22:16:06.092Z,4.07
2022-09-07T22:18:34.566Z,4.85
2022-09-07T22:21:03.593Z,5.53
2022-09-07T22:23:32.007Z,5.70
2022-09-07T22:25:59.447Z,6.20
2022-09-07T22:28:27.113Z,5.35
2022-09-07T22:30:56.020Z,5.30
2022-09-07T22:33:23.771Z,5.35
2022-09-07T22:35:51.129Z,5.25
2022-09-07T22:38:18.505Z,5.35
2022-09-07T22:40:45.859Z,4.75
2022-09-07T22:43:13.199Z,4.93
2022-09-07T22:45:40.533Z,4.20
2022-09-07T22:48:09.189Z,5.03
2022-09-07T22:50:36.543Z,5.40
2022-09-07T22:53:03.898Z,6.20
2022-09-07T22:55:31.417Z,6.25
2022-09-07T22:58:02.068Z,5.47
2022-09-07T23:00:29.896Z,3.50
2022-09-07T23:02:57.229Z,3.50
2022-09-07T23:05:25.895Z,3.40
2022-09-07T23:07:53.249Z,3.35
2022-09-07T23:10:20.597Z,4.93
2022-09-07T23:12:47.965Z,6.00
2022-09-07T23:15:15.364Z,6.18
2022-09-07T23:17:42.714Z,7.57
2022-09-07T23:20:10.351Z,8.15
2022-09-07T23:22:39.112Z,7.00
2022-09-07T23:25:07.440Z,5.90
2022-09-07T23:27:34.821Z,4.38
2022-09-07T23:30:02.178Z,5.50
2022-09-07T23:32:29.632Z,7.78
2022-09-07T23:34:56.977Z,6.80
2022-09-07T23:37:24.379Z,6.68
2022-09-07T23:39:53.091Z,8.23
2022-09-07T23:42:20.454Z,8.02
2022-09-07T23:44:48.445Z,6.85
2022-09-07T23:47:16.052Z,6.63
2022-09-07T23:49:43.404Z,8.40
2022-09-07T23:52:10.749Z,7.38
2022-09-07T23:54:38.103Z,6.45
2022-09-07T23:57:06.855Z,5.47
2022-09-07T23:59:34.216Z,5.25
